sensor_id;sensor_type;location;lat;lon;timestamp;P1;durP1;ratioP1;P2;durP2;ratioP2
20144;SDS011;10233;50.814;6.590;2023-04-24T00:00:21;0.80;;;0.75;;
20144;SDS011;10233;50.814;6.590;2023-04-24T00:01:22;1.10;;;0.67;;
20144;SDS011;10233;50.814;6.590;2023-04-24T00:02:22;1.55;;;0.70;;
20144;SDS011;10233;50.814;6.590;2023-04-24T00:03:24;1.33;;;0.98;;
20144;SDS011;10233;50.814;6.590;2023-04-24T00:04:24;1.10;;;0.88;;
20144;SDS011;10233;50.814;6.590;2023-04-24T00:05:26;1.95;;;0.90;;
20144;SDS011;10233;50.814;6.590;2023-04-24T00:06:27;1.63;;;1.10;;
20144;SDS011;10233;50.814;6.590;2023-04-24T00:07:33;1.45;;;0.90;;
20144;SDS011;10233;50.814;6.590;2023-04-24T00:08:35;1.95;;;1.10;;
20144;SDS011;10233;50.814;6.590;2023-04-24T00:09:36;1.25;;;0.80;;
20144;SDS011;10233;50.814;6.590;2023-04-24T00:10:37;1.20;;;0.80;;
20144;SDS011;10233;50.814;6.590;2023-04-24T00:11:37;2.20;;;0.90;;
20144;SDS011;10233;50.814;6.590;2023-04-24T00:12:38;1.05;;;0.88;;
20144;SDS011;10233;50.814;6.590;2023-04-24T00:13:39;1.40;;;0.88;;
20144;SDS011;10233;50.814;6.590;2023-04-24T00:14:39;0.82;;;0.73;;
20144;SDS011;10233;50.814;6.590;2023-04-24T00:15:40;1.53;;;0.83;;
20144;SDS011;10233;50.814;6.590;2023-04-24T00:16:41;1.90;;;0.95;;
20144;SDS011;10233;50.814;6.590;2023-04-24T00:17:41;1.50;;;1.00;;
20144;SDS011;10233;50.814;6.590;2023-04-24T00:18:42;2.00;;;0.90;;
20144;SDS011;10233;50.814;6.590;2023-04-24T00:19:42;1.50;;;0.90;;
20144;SDS011;10233;50.814;6.590;2023-04-24T00:20:44;1.40;;;1.00;;
20144;SDS011;10233;50.814;6.590;2023-04-24T00:21:46;1.33;;;0.85;;
20144;SDS011;10233;50.814;6.590;2023-04-24T00:22:50;2.45;;;1.00;;
20144;SDS011;10233;50.814;6.590;2023-04-24T00:23:50;1.75;;;0.90;;
20144;SDS011;10233;50.814;6.590;2023-04-24T00:24:51;1.47;;;0.90;;
20144;SDS011;10233;50.814;6.590;2023-04-24T00:25:52;2.17;;;0.97;;
20144;SDS011;10233;50.814;6.590;2023-04-24T00:26:52;1.30;;;0.80;;
20144;SDS011;10233;50.814;6.590;2023-04-24T00:27:53;2.07;;;1.00;;
20144;SDS011;10233;50.814;6.590;2023-04-24T00:28:54;1.10;;;0.90;;
20144;SDS011;10233;50.814;6.590;2023-04-24T00:29:55;2.50;;;0.90;;
20144;SDS011;10233;50.814;6.590;2023-04-24T00:30:56;1.05;;;0.70;;
20144;SDS011;10233;50.814;6.590;2023-04-24T00:31:56;1.40;;;0.80;;
20144;SDS011;10233;50.814;6.590;2023-04-24T00:32:58;1.38;;;0.70;;
20144;SDS011;10233;50.814;6.590;2023-04-24T00:33:58;2.17;;;0.93;;
20144;SDS011;10233;50.814;6.590;2023-04-24T00:34:59;0.75;;;0.70;;
20144;SDS011;10233;50.814;6.590;2023-04-24T00:36:00;1.83;;;0.80;;
20144;SDS011;10233;50.814;6.590;2023-04-24T00:37:00;3.20;;;0.80;;
20144;SDS011;10233;50.814;6.590;2023-04-24T00:38:01;1.20;;;0.88;;
20144;SDS011;10233;50.814;6.590;2023-04-24T00:39:01;1.63;;;0.90;;
20144;SDS011;10233;50.814;6.590;2023-04-24T00:40:02;1.50;;;0.80;;
20144;SDS011;10233;50.814;6.590;2023-04-24T00:41:03;1.25;;;0.80;;
20144;SDS011;10233;50.814;6.590;2023-04-24T00:42:04;1.67;;;0.77;;
20144;SDS011;10233;50.814;6.590;2023-04-24T00:43:06;2.05;;;0.70;;
20144;SDS011;10233;50.814;6.590;2023-04-24T00:44:07;2.65;;;0.82;;
20144;SDS011;10233;50.814;6.590;2023-04-24T00:45:08;1.87;;;1.10;;
20144;SDS011;10233;50.814;6.590;2023-04-24T00:46:09;1.60;;;0.90;;
20144;SDS011;10233;50.814;6.590;2023-04-24T00:47:10;2.28;;;1.10;;
20144;SDS011;10233;50.814;6.590;2023-04-24T00:48:11;2.10;;;1.08;;
20144;SDS011;10233;50.814;6.590;2023-04-24T00:49:12;1.60;;;1.13;;
20144;SDS011;10233;50.814;6.590;2023-04-24T00:50:14;3.95;;;1.30;;
20144;SDS011;10233;50.814;6.590;2023-04-24T00:51:15;1.90;;;1.10;;
20144;SDS011;10233;50.814;6.590;2023-04-24T00:52:16;2.23;;;1.13;;
20144;SDS011;10233;50.814;6.590;2023-04-24T00:53:17;2.78;;;1.50;;
20144;SDS011;10233;50.814;6.590;2023-04-24T00:54:18;2.13;;;1.27;;
20144;SDS011;10233;50.814;6.590;2023-04-24T00:55:19;2.10;;;1.30;;
20144;SDS011;10233;50.814;6.590;2023-04-24T00:56:19;1.67;;;1.30;;
20144;SDS011;10233;50.814;6.590;2023-04-24T00:57:20;2.90;;;1.30;;
20144;SDS011;10233;50.814;6.590;2023-04-24T00:58:22;1.92;;;1.27;;
20144;SDS011;10233;50.814;6.590;2023-04-24T00:59:22;5.10;;;1.42;;
20144;SDS011;10233;50.814;6.590;2023-04-24T01:00:23;2.50;;;1.43;;
20144;SDS011;10233;50.814;6.590;2023-04-24T01:01:24;3.80;;;1.70;;
20144;SDS011;10233;50.814;6.590;2023-04-24T01:02:25;2.33;;;1.80;;
20144;SDS011;10233;50.814;6.590;2023-04-24T01:03:27;4.60;;;2.03;;
20144;SDS011;10233;50.814;6.590;2023-04-24T01:04:30;4.57;;;1.85;;
20144;SDS011;10233;50.814;6.590;2023-04-24T01:05:31;2.45;;;1.85;;
20144;SDS011;10233;50.814;6.590;2023-04-24T01:06:32;3.20;;;2.00;;
20144;SDS011;10233;50.814;6.590;2023-04-24T01:07:33;2.20;;;1.80;;
20144;SDS011;10233;50.814;6.590;2023-04-24T01:08:35;3.13;;;2.08;;
20144;SDS011;10233;50.814;6.590;2023-04-24T01:09:40;2.90;;;2.13;;
20144;SDS011;10233;50.814;6.590;2023-04-24T01:10:44;3.20;;;1.95;;
20144;SDS011;10233;50.814;6.590;2023-04-24T01:11:46;3.15;;;2.30;;
20144;SDS011;10233;50.814;6.590;2023-04-24T01:12:47;4.25;;;2.20;;
20144;SDS011;10233;50.814;6.590;2023-04-24T01:13:48;3.50;;;2.13;;
20144;SDS011;10233;50.814;6.590;2023-04-24T01:14:48;3.00;;;2.35;;
20144;SDS011;10233;50.814;6.590;2023-04-24T01:15:49;5.28;;;2.47;;
20144;SDS011;10233;50.814;6.590;2023-04-24T01:16:50;3.33;;;2.53;;
20144;SDS011;10233;50.814;6.590;2023-04-24T01:17:51;2.80;;;2.20;;
20144;SDS011;10233;50.814;6.590;2023-04-24T01:18:51;3.72;;;2.33;;
20144;SDS011;10233;50.814;6.590;2023-04-24T01:19:53;3.22;;;2.38;;
20144;SDS011;10233;50.814;6.590;2023-04-24T01:20:54;3.78;;;2.40;;
20144;SDS011;10233;50.814;6.590;2023-04-24T01:21:58;4.73;;;2.40;;
20144;SDS011;10233;50.814;6.590;2023-04-24T01:23:03;3.80;;;2.50;;
20144;SDS011;10233;50.814;6.590;2023-04-24T01:24:04;3.05;;;2.22;;
20144;SDS011;10233;50.814;6.590;2023-04-24T01:25:05;3.58;;;2.33;;
20144;SDS011;10233;50.814;6.590;2023-04-24T01:26:06;3.80;;;2.55;;
20144;SDS011;10233;50.814;6.590;2023-04-24T01:27:08;5.40;;;2.53;;
20144;SDS011;10233;50.814;6.590;2023-04-24T01:28:09;3.50;;;2.45;;
20144;SDS011;10233;50.814;6.590;2023-04-24T01:29:12;3.97;;;2.65;;
20144;SDS011;10233;50.814;6.590;2023-04-24T01:30:13;5.43;;;2.80;;
20144;SDS011;10233;50.814;6.590;2023-04-24T01:31:15;4.35;;;2.78;;
20144;SDS011;10233;50.814;6.590;2023-04-24T01:32:15;5.18;;;2.58;;
20144;SDS011;10233;50.814;6.590;2023-04-24T01:33:17;4.47;;;2.70;;
20144;SDS011;10233;50.814;6.590;2023-04-24T01:34:17;4.63;;;2.65;;
20144;SDS011;10233;50.814;6.590;2023-04-24T01:35:19;4.15;;;2.40;;
20144;SDS011;10233;50.814;6.590;2023-04-24T01:36:20;3.10;;;2.60;;
20144;SDS011;10233;50.814;6.590;2023-04-24T01:37:22;4.25;;;2.45;;
20144;SDS011;10233;50.814;6.590;2023-04-24T01:38:23;4.55;;;2.38;;
20144;SDS011;10233;50.814;6.590;2023-04-24T01:39:23;4.38;;;3.20;;
20144;SDS011;10233;50.814;6.590;2023-04-24T01:40:27;3.88;;;2.70;;
20144;SDS011;10233;50.814;6.590;2023-04-24T01:41:30;4.65;;;2.38;;
20144;SDS011;10233;50.814;6.590;2023-04-24T01:42:32;3.50;;;2.50;;
20144;SDS011;10233;50.814;6.590;2023-04-24T01:43:35;4.53;;;2.60;;
20144;SDS011;10233;50.814;6.590;2023-04-24T01:44:36;5.32;;;2.80;;
20144;SDS011;10233;50.814;6.590;2023-04-24T01:45:37;3.90;;;2.40;;
20144;SDS011;10233;50.814;6.590;2023-04-24T01:46:38;4.67;;;2.80;;
20144;SDS011;10233;50.814;6.590;2023-04-24T01:47:39;6.18;;;2.92;;
20144;SDS011;10233;50.814;6.590;2023-04-24T01:48:39;4.90;;;2.70;;
20144;SDS011;10233;50.814;6.590;2023-04-24T01:49:41;4.55;;;2.72;;
20144;SDS011;10233;50.814;6.590;2023-04-24T01:50:42;5.20;;;2.60;;
20144;SDS011;10233;50.814;6.590;2023-04-24T01:51:45;5.53;;;2.75;;
20144;SDS011;10233;50.814;6.590;2023-04-24T01:52:46;3.58;;;2.70;;
20144;SDS011;10233;50.814;6.590;2023-04-24T01:53:47;5.03;;;2.83;;
20144;SDS011;10233;50.814;6.590;2023-04-24T01:54:48;5.00;;;2.80;;
20144;SDS011;10233;50.814;6.590;2023-04-24T01:55:48;6.20;;;3.00;;
20144;SDS011;10233;50.814;6.590;2023-04-24T01:56:49;4.90;;;3.20;;
20144;SDS011;10233;50.814;6.590;2023-04-24T01:57:51;4.87;;;3.40;;
20144;SDS011;10233;50.814;6.590;2023-04-24T01:58:54;6.25;;;3.65;;
20144;SDS011;10233;50.814;6.590;2023-04-24T01:59:57;6.07;;;3.70;;
20144;SDS011;10233;50.814;6.590;2023-04-24T02:00:58;5.67;;;3.70;;
20144;SDS011;10233;50.814;6.590;2023-04-24T02:02:02;6.63;;;3.92;;
20144;SDS011;10233;50.814;6.590;2023-04-24T02:03:03;9.70;;;4.82;;
20144;SDS011;10233;50.814;6.590;2023-04-24T02:04:04;11.35;;;4.82;;
20144;SDS011;10233;50.814;6.590;2023-04-24T02:05:06;11.65;;;6.40;;
20144;SDS011;10233;50.814;6.590;2023-04-24T02:06:10;8.07;;;4.90;;
20144;SDS011;10233;50.814;6.590;2023-04-24T02:07:10;9.95;;;4.97;;
20144;SDS011;10233;50.814;6.590;2023-04-24T02:08:11;7.60;;;4.33;;
20144;SDS011;10233;50.814;6.590;2023-04-24T02:09:11;6.30;;;3.70;;
20144;SDS011;10233;50.814;6.590;2023-04-24T02:10:12;7.67;;;3.97;;
20144;SDS011;10233;50.814;6.590;2023-04-24T02:11:16;5.80;;;3.85;;
20144;SDS011;10233;50.814;6.590;2023-04-24T02:12:17;7.75;;;4.00;;
20144;SDS011;10233;50.814;6.590;2023-04-24T02:13:18;5.93;;;4.15;;
20144;SDS011;10233;50.814;6.590;2023-04-24T02:14:18;7.40;;;4.20;;
20144;SDS011;10233;50.814;6.590;2023-04-24T02:15:19;6.47;;;4.47;;
20144;SDS011;10233;50.814;6.590;2023-04-24T02:16:20;6.85;;;4.28;;
20144;SDS011;10233;50.814;6.590;2023-04-24T02:17:20;8.88;;;4.22;;
20144;SDS011;10233;50.814;6.590;2023-04-24T02:18:21;6.47;;;3.93;;
20144;SDS011;10233;50.814;6.590;2023-04-24T02:19:22;6.68;;;4.32;;
20144;SDS011;10233;50.814;6.590;2023-04-24T02:20:24;5.70;;;4.18;;
20144;SDS011;10233;50.814;6.590;2023-04-24T02:21:27;7.57;;;4.45;;
20144;SDS011;10233;50.814;6.590;2023-04-24T02:22:28;9.27;;;4.65;;
20144;SDS011;10233;50.814;6.590;2023-04-24T02:23:28;7.28;;;4.78;;
20144;SDS011;10233;50.814;6.590;2023-04-24T02:24:29;8.47;;;4.07;;
20144;SDS011;10233;50.814;6.590;2023-04-24T02:25:30;6.57;;;4.10;;
20144;SDS011;10233;50.814;6.590;2023-04-24T02:26:30;8.73;;;4.72;;
20144;SDS011;10233;50.814;6.590;2023-04-24T02:27:31;7.28;;;4.30;;
20144;SDS011;10233;50.814;6.590;2023-04-24T02:28:32;8.73;;;4.60;;
20144;SDS011;10233;50.814;6.590;2023-04-24T02:29:33;7.90;;;4.82;;
20144;SDS011;10233;50.814;6.590;2023-04-24T02:30:33;9.37;;;4.87;;
20144;SDS011;10233;50.814;6.590;2023-04-24T02:31:34;9.38;;;5.00;;
20144;SDS011;10233;50.814;6.590;2023-04-24T02:32:35;6.43;;;4.20;;
20144;SDS011;10233;50.814;6.590;2023-04-24T02:33:36;7.55;;;4.40;;
20144;SDS011;10233;50.814;6.590;2023-04-24T02:34:36;7.37;;;4.50;;
20144;SDS011;10233;50.814;6.590;2023-04-24T02:35:37;7.85;;;4.47;;
20144;SDS011;10233;50.814;6.590;2023-04-24T02:36:38;9.07;;;4.60;;
20144;SDS011;10233;50.814;6.590;2023-04-24T02:37:38;8.00;;;4.63;;
20144;SDS011;10233;50.814;6.590;2023-04-24T02:38:39;8.13;;;4.60;;
20144;SDS011;10233;50.814;6.590;2023-04-24T02:39:39;9.95;;;5.47;;
20144;SDS011;10233;50.814;6.590;2023-04-24T02:40:40;9.07;;;4.90;;
20144;SDS011;10233;50.814;6.590;2023-04-24T02:41:41;7.05;;;4.70;;
20144;SDS011;10233;50.814;6.590;2023-04-24T02:42:42;8.82;;;4.95;;
20144;SDS011;10233;50.814;6.590;2023-04-24T02:43:43;7.65;;;5.30;;
20144;SDS011;10233;50.814;6.590;2023-04-24T02:44:43;9.95;;;5.55;;
20144;SDS011;10233;50.814;6.590;2023-04-24T02:45:44;8.13;;;5.20;;
20144;SDS011;10233;50.814;6.590;2023-04-24T02:46:45;8.70;;;5.35;;
20144;SDS011;10233;50.814;6.590;2023-04-24T02:47:45;8.10;;;5.17;;
20144;SDS011;10233;50.814;6.590;2023-04-24T02:48:46;9.13;;;5.30;;
20144;SDS011;10233;50.814;6.590;2023-04-24T02:49:47;9.82;;;5.20;;
20144;SDS011;10233;50.814;6.590;2023-04-24T02:50:47;8.53;;;5.30;;
20144;SDS011;10233;50.814;6.590;2023-04-24T02:51:48;10.98;;;5.10;;
20144;SDS011;10233;50.814;6.590;2023-04-24T02:52:48;9.37;;;5.40;;
20144;SDS011;10233;50.814;6.590;2023-04-24T02:53:49;10.05;;;5.25;;
20144;SDS011;10233;50.814;6.590;2023-04-24T02:54:49;9.18;;;5.15;;
20144;SDS011;10233;50.814;6.590;2023-04-24T02:55:50;8.30;;;4.77;;
20144;SDS011;10233;50.814;6.590;2023-04-24T02:56:51;8.15;;;4.78;;
20144;SDS011;10233;50.814;6.590;2023-04-24T02:57:52;8.48;;;5.13;;
20144;SDS011;10233;50.814;6.590;2023-04-24T02:58:52;8.60;;;4.95;;
20144;SDS011;10233;50.814;6.590;2023-04-24T02:59:53;9.57;;;4.83;;
20144;SDS011;10233;50.814;6.590;2023-04-24T03:00:54;7.43;;;5.10;;
20144;SDS011;10233;50.814;6.590;2023-04-24T03:01:58;9.57;;;5.50;;
20144;SDS011;10233;50.814;6.590;2023-04-24T03:02:58;9.63;;;5.40;;
20144;SDS011;10233;50.814;6.590;2023-04-24T03:03:59;9.88;;;5.20;;
20144;SDS011;10233;50.814;6.590;2023-04-24T03:04:59;10.48;;;5.20;;
20144;SDS011;10233;50.814;6.590;2023-04-24T03:06:00;8.30;;;4.73;;
20144;SDS011;10233;50.814;6.590;2023-04-24T03:07:01;8.23;;;5.20;;
20144;SDS011;10233;50.814;6.590;2023-04-24T03:08:02;7.80;;;5.13;;
20144;SDS011;10233;50.814;6.590;2023-04-24T03:09:02;9.60;;;5.20;;
20144;SDS011;10233;50.814;6.590;2023-04-24T03:10:04;9.27;;;5.07;;
20144;SDS011;10233;50.814;6.590;2023-04-24T03:11:05;8.30;;;5.10;;
20144;SDS011;10233;50.814;6.590;2023-04-24T03:12:06;9.55;;;5.18;;
20144;SDS011;10233;50.814;6.590;2023-04-24T03:13:07;9.43;;;5.30;;
20144;SDS011;10233;50.814;6.590;2023-04-24T03:14:08;7.57;;;4.82;;
20144;SDS011;10233;50.814;6.590;2023-04-24T03:15:11;7.97;;;4.70;;
20144;SDS011;10233;50.814;6.590;2023-04-24T03:16:12;8.40;;;4.80;;
20144;SDS011;10233;50.814;6.590;2023-04-24T03:17:13;9.88;;;5.00;;
20144;SDS011;10233;50.814;6.590;2023-04-24T03:18:14;7.20;;;4.97;;
20144;SDS011;10233;50.814;6.590;2023-04-24T03:19:14;7.20;;;4.80;;
20144;SDS011;10233;50.814;6.590;2023-04-24T03:20:29;8.25;;;5.00;;
20144;SDS011;10233;50.814;6.590;2023-04-24T03:21:31;7.10;;;4.60;;
20144;SDS011;10233;50.814;6.590;2023-04-24T03:22:32;7.88;;;4.65;;
20144;SDS011;10233;50.814;6.590;2023-04-24T03:23:34;7.57;;;4.90;;
20144;SDS011;10233;50.814;6.590;2023-04-24T03:24:35;7.90;;;5.03;;
20144;SDS011;10233;50.814;6.590;2023-04-24T03:25:36;9.63;;;4.82;;
20144;SDS011;10233;50.814;6.590;2023-04-24T03:26:37;7.43;;;4.57;;
20144;SDS011;10233;50.814;6.590;2023-04-24T03:27:51;8.93;;;4.72;;
20144;SDS011;10233;50.814;6.590;2023-04-24T03:29:04;8.38;;;4.68;;
20144;SDS011;10233;50.814;6.590;2023-04-24T03:30:05;6.93;;;4.93;;
20144;SDS011;10233;50.814;6.590;2023-04-24T03:31:16;7.50;;;4.40;;
20144;SDS011;10233;50.814;6.590;2023-04-24T03:32:17;9.07;;;4.75;;
20144;SDS011;10233;50.814;6.590;2023-04-24T03:33:20;8.53;;;4.90;;
20144;SDS011;10233;50.814;6.590;2023-04-24T03:34:35;9.80;;;4.53;;
20144;SDS011;10233;50.814;6.590;2023-04-24T03:35:35;8.63;;;4.67;;
20144;SDS011;10233;50.814;6.590;2023-04-24T03:36:40;9.23;;;4.60;;
20144;SDS011;10233;50.814;6.590;2023-04-24T03:37:42;7.97;;;4.70;;
20144;SDS011;10233;50.814;6.590;2023-04-24T03:39:15;7.28;;;4.70;;
20144;SDS011;10233;50.814;6.590;2023-04-24T03:40:23;7.90;;;4.20;;
20144;SDS011;10233;50.814;6.590;2023-04-24T03:41:24;7.63;;;4.55;;
20144;SDS011;10233;50.814;6.590;2023-04-24T03:42:38;7.70;;;4.85;;
20144;SDS011;10233;50.814;6.590;2023-04-24T03:43:38;6.35;;;4.25;;
20144;SDS011;10233;50.814;6.590;2023-04-24T03:44:40;7.10;;;4.43;;
20144;SDS011;10233;50.814;6.590;2023-04-24T03:45:40;7.78;;;4.72;;
20144;SDS011;10233;50.814;6.590;2023-04-24T03:46:42;6.18;;;4.38;;
20144;SDS011;10233;50.814;6.590;2023-04-24T03:47:43;7.33;;;4.80;;
20144;SDS011;10233;50.814;6.590;2023-04-24T03:48:44;6.78;;;4.40;;
20144;SDS011;10233;50.814;6.590;2023-04-24T03:49:45;9.23;;;4.78;;
20144;SDS011;10233;50.814;6.590;2023-04-24T03:50:45;8.45;;;4.55;;
20144;SDS011;10233;50.814;6.590;2023-04-24T03:51:47;9.43;;;4.90;;
20144;SDS011;10233;50.814;6.590;2023-04-24T03:52:54;8.57;;;4.82;;
20144;SDS011;10233;50.814;6.590;2023-04-24T03:54:07;10.02;;;4.60;;
20144;SDS011;10233;50.814;6.590;2023-04-24T03:55:10;9.10;;;4.90;;
20144;SDS011;10233;50.814;6.590;2023-04-24T03:56:17;7.82;;;4.80;;
20144;SDS011;10233;50.814;6.590;2023-04-24T03:57:18;8.93;;;4.57;;
20144;SDS011;10233;50.814;6.590;2023-04-24T03:58:31;7.65;;;4.25;;
20144;SDS011;10233;50.814;6.590;2023-04-24T03:59:32;6.70;;;3.95;;
20144;SDS011;10233;50.814;6.590;2023-04-24T04:00:42;7.75;;;4.28;;
20144;SDS011;10233;50.814;6.590;2023-04-24T04:02:03;7.60;;;4.80;;
20144;SDS011;10233;50.814;6.590;2023-04-24T04:03:04;7.93;;;4.50;;
20144;SDS011;10233;50.814;6.590;2023-04-24T04:04:05;7.20;;;4.40;;
20144;SDS011;10233;50.814;6.590;2023-04-24T04:05:06;6.78;;;4.22;;
20144;SDS011;10233;50.814;6.590;2023-04-24T04:06:08;7.45;;;4.35;;
20144;SDS011;10233;50.814;6.590;2023-04-24T04:07:11;6.43;;;3.92;;
20144;SDS011;10233;50.814;6.590;2023-04-24T04:08:13;7.45;;;3.85;;
20144;SDS011;10233;50.814;6.590;2023-04-24T04:09:14;6.75;;;3.50;;
20144;SDS011;10233;50.814;6.590;2023-04-24T04:10:15;6.13;;;4.00;;
20144;SDS011;10233;50.814;6.590;2023-04-24T04:11:17;5.63;;;4.55;;
20144;SDS011;10233;50.814;6.590;2023-04-24T04:12:19;5.95;;;4.25;;
20144;SDS011;10233;50.814;6.590;2023-04-24T04:13:20;8.50;;;4.00;;
20144;SDS011;10233;50.814;6.590;2023-04-24T04:14:21;8.07;;;3.93;;
20144;SDS011;10233;50.814;6.590;2023-04-24T04:15:22;6.75;;;3.88;;
20144;SDS011;10233;50.814;6.590;2023-04-24T04:16:24;5.85;;;4.00;;
20144;SDS011;10233;50.814;6.590;2023-04-24T04:17:29;7.38;;;3.70;;
20144;SDS011;10233;50.814;6.590;2023-04-24T04:18:31;6.35;;;3.97;;
20144;SDS011;10233;50.814;6.590;2023-04-24T04:19:32;7.38;;;4.00;;
20144;SDS011;10233;50.814;6.590;2023-04-24T04:20:33;8.10;;;3.90;;
20144;SDS011;10233;50.814;6.590;2023-04-24T04:21:35;7.25;;;3.90;;
20144;SDS011;10233;50.814;6.590;2023-04-24T04:23:02;6.13;;;3.70;;
20144;SDS011;10233;50.814;6.590;2023-04-24T04:24:16;6.25;;;3.60;;
20144;SDS011;10233;50.814;6.590;2023-04-24T04:25:19;5.68;;;3.55;;
20144;SDS011;10233;50.814;6.590;2023-04-24T04:26:20;7.60;;;3.72;;
20144;SDS011;10233;50.814;6.590;2023-04-24T04:27:37;6.10;;;3.55;;
20144;SDS011;10233;50.814;6.590;2023-04-24T04:28:44;5.00;;;3.63;;
20144;SDS011;10233;50.814;6.590;2023-04-24T04:29:45;6.38;;;3.70;;
20144;SDS011;10233;50.814;6.590;2023-04-24T04:30:47;6.25;;;4.00;;
20144;SDS011;10233;50.814;6.590;2023-04-24T04:31:49;7.10;;;4.00;;
20144;SDS011;10233;50.814;6.590;2023-04-24T04:32:50;6.85;;;3.80;;
20144;SDS011;10233;50.814;6.590;2023-04-24T04:33:51;6.82;;;4.32;;
20144;SDS011;10233;50.814;6.590;2023-04-24T04:34:52;5.38;;;3.70;;
20144;SDS011;10233;50.814;6.590;2023-04-24T04:35:54;8.68;;;3.92;;
20144;SDS011;10233;50.814;6.590;2023-04-24T04:36:58;8.45;;;4.00;;
20144;SDS011;10233;50.814;6.590;2023-04-24T04:38:15;5.82;;;3.90;;
20144;SDS011;10233;50.814;6.590;2023-04-24T04:39:32;5.90;;;4.07;;
20144;SDS011;10233;50.814;6.590;2023-04-24T04:40:35;5.88;;;4.10;;
20144;SDS011;10233;50.814;6.590;2023-04-24T04:41:39;6.93;;;4.10;;
20144;SDS011;10233;50.814;6.590;2023-04-24T04:42:41;6.60;;;4.17;;
20144;SDS011;10233;50.814;6.590;2023-04-24T04:43:43;6.38;;;3.95;;
20144;SDS011;10233;50.814;6.590;2023-04-24T04:44:44;5.55;;;4.05;;
20144;SDS011;10233;50.814;6.590;2023-04-24T04:45:50;6.60;;;3.75;;
20144;SDS011;10233;50.814;6.590;2023-04-24T04:47:11;6.88;;;4.50;;
20144;SDS011;10233;50.814;6.590;2023-04-24T04:48:12;6.57;;;4.38;;
20144;SDS011;10233;50.814;6.590;2023-04-24T04:49:14;7.53;;;4.30;;
20144;SDS011;10233;50.814;6.590;2023-04-24T04:50:17;6.75;;;4.28;;
20144;SDS011;10233;50.814;6.590;2023-04-24T04:51:19;9.27;;;4.68;;
20144;SDS011;10233;50.814;6.590;2023-04-24T04:52:20;7.47;;;4.53;;
20144;SDS011;10233;50.814;6.590;2023-04-24T04:53:29;6.38;;;4.50;;
20144;SDS011;10233;50.814;6.590;2023-04-24T04:54:30;5.78;;;3.80;;
20144;SDS011;10233;50.814;6.590;2023-04-24T04:55:31;6.10;;;4.13;;
20144;SDS011;10233;50.814;6.590;2023-04-24T04:56:58;6.97;;;3.90;;
20144;SDS011;10233;50.814;6.590;2023-04-24T04:57:59;7.10;;;4.57;;
20144;SDS011;10233;50.814;6.590;2023-04-24T04:59:01;11.35;;;7.18;;
20144;SDS011;10233;50.814;6.590;2023-04-24T05:00:01;7.53;;;4.13;;
20144;SDS011;10233;50.814;6.590;2023-04-24T05:01:15;6.45;;;3.92;;
20144;SDS011;10233;50.814;6.590;2023-04-24T05:02:19;7.90;;;4.18;;
20144;SDS011;10233;50.814;6.590;2023-04-24T05:03:20;5.78;;;4.10;;
20144;SDS011;10233;50.814;6.590;2023-04-24T05:04:24;9.57;;;4.43;;
20144;SDS011;10233;50.814;6.590;2023-04-24T05:05:25;6.97;;;4.57;;
20144;SDS011;10233;50.814;6.590;2023-04-24T05:06:26;8.13;;;4.60;;
20144;SDS011;10233;50.814;6.590;2023-04-24T05:07:28;8.05;;;4.53;;
20144;SDS011;10233;50.814;6.590;2023-04-24T05:08:30;5.97;;;4.18;;
20144;SDS011;10233;50.814;6.590;2023-04-24T05:09:30;6.67;;;4.27;;
20144;SDS011;10233;50.814;6.590;2023-04-24T05:10:36;5.07;;;3.60;;
20144;SDS011;10233;50.814;6.590;2023-04-24T05:11:37;6.43;;;4.00;;
20144;SDS011;10233;50.814;6.590;2023-04-24T05:12:39;5.95;;;4.10;;
20144;SDS011;10233;50.814;6.590;2023-04-24T05:13:40;7.25;;;3.95;;
20144;SDS011;10233;50.814;6.590;2023-04-24T05:15:04;7.47;;;4.63;;
20144;SDS011;10233;50.814;6.590;2023-04-24T05:16:05;7.90;;;4.07;;
20144;SDS011;10233;50.814;6.590;2023-04-24T05:17:06;7.60;;;4.40;;
20144;SDS011;10233;50.814;6.590;2023-04-24T05:18:07;9.53;;;4.30;;
20144;SDS011;10233;50.814;6.590;2023-04-24T05:19:08;6.70;;;4.18;;
20144;SDS011;10233;50.814;6.590;2023-04-24T05:20:13;5.20;;;3.63;;
20144;SDS011;10233;50.814;6.590;2023-04-24T05:21:15;5.88;;;3.95;;
20144;SDS011;10233;50.814;6.590;2023-04-24T05:22:18;9.00;;;4.13;;
20144;SDS011;10233;50.814;6.590;2023-04-24T05:23:24;6.03;;;3.88;;
20144;SDS011;10233;50.814;6.590;2023-04-24T05:24:27;7.03;;;4.00;;
20144;SDS011;10233;50.814;6.590;2023-04-24T05:25:46;7.40;;;4.25;;
20144;SDS011;10233;50.814;6.590;2023-04-24T05:26:48;8.88;;;4.20;;
20144;SDS011;10233;50.814;6.590;2023-04-24T05:27:52;7.40;;;4.22;;
20144;SDS011;10233;50.814;6.590;2023-04-24T05:28:53;7.22;;;3.90;;
20144;SDS011;10233;50.814;6.590;2023-04-24T05:29:54;6.15;;;3.60;;
20144;SDS011;10233;50.814;6.590;2023-04-24T05:30:55;5.93;;;3.70;;
20144;SDS011;10233;50.814;6.590;2023-04-24T05:31:57;5.88;;;3.67;;
20144;SDS011;10233;50.814;6.590;2023-04-24T05:32:58;6.05;;;3.42;;
20144;SDS011;10233;50.814;6.590;2023-04-24T05:33:59;7.47;;;3.33;;
20144;SDS011;10233;50.814;6.590;2023-04-24T05:35:00;5.78;;;3.75;;
20144;SDS011;10233;50.814;6.590;2023-04-24T05:36:01;5.07;;;3.22;;
20144;SDS011;10233;50.814;6.590;2023-04-24T05:37:02;6.05;;;3.38;;
20144;SDS011;10233;50.814;6.590;2023-04-24T05:38:03;6.72;;;3.28;;
20144;SDS011;10233;50.814;6.590;2023-04-24T05:39:04;5.90;;;3.00;;
20144;SDS011;10233;50.814;6.590;2023-04-24T05:40:05;3.72;;;2.60;;
20144;SDS011;10233;50.814;6.590;2023-04-24T05:41:06;3.17;;;2.28;;
20144;SDS011;10233;50.814;6.590;2023-04-24T05:42:07;3.25;;;2.05;;
20144;SDS011;10233;50.814;6.590;2023-04-24T05:43:07;3.92;;;2.42;;
20144;SDS011;10233;50.814;6.590;2023-04-24T05:44:08;3.53;;;2.10;;
20144;SDS011;10233;50.814;6.590;2023-04-24T05:45:09;2.67;;;1.88;;
20144;SDS011;10233;50.814;6.590;2023-04-24T05:46:16;4.65;;;2.25;;
20144;SDS011;10233;50.814;6.590;2023-04-24T05:47:16;4.10;;;2.20;;
20144;SDS011;10233;50.814;6.590;2023-04-24T05:48:17;4.23;;;2.43;;
20144;SDS011;10233;50.814;6.590;2023-04-24T05:49:18;3.25;;;2.10;;
20144;SDS011;10233;50.814;6.590;2023-04-24T05:50:20;4.32;;;2.30;;
20144;SDS011;10233;50.814;6.590;2023-04-24T05:51:21;2.47;;;1.67;;
20144;SDS011;10233;50.814;6.590;2023-04-24T05:52:22;3.90;;;2.05;;
20144;SDS011;10233;50.814;6.590;2023-04-24T05:53:23;4.35;;;1.92;;
20144;SDS011;10233;50.814;6.590;2023-04-24T05:54:24;3.03;;;1.80;;
20144;SDS011;10233;50.814;6.590;2023-04-24T05:55:26;2.80;;;1.67;;
20144;SDS011;10233;50.814;6.590;2023-04-24T05:56:27;2.55;;;1.75;;
20144;SDS011;10233;50.814;6.590;2023-04-24T05:57:28;2.95;;;1.60;;
20144;SDS011;10233;50.814;6.590;2023-04-24T05:58:34;3.72;;;1.83;;
20144;SDS011;10233;50.814;6.590;2023-04-24T05:59:36;2.40;;;1.55;;
20144;SDS011;10233;50.814;6.590;2023-04-24T06:00:38;1.60;;;1.23;;
20144;SDS011;10233;50.814;6.590;2023-04-24T06:01:42;2.13;;;1.40;;
20144;SDS011;10233;50.814;6.590;2023-04-24T06:02:48;1.70;;;1.40;;
20144;SDS011;10233;50.814;6.590;2023-04-24T06:03:49;2.95;;;1.80;;
20144;SDS011;10233;50.814;6.590;2023-04-24T06:04:50;2.30;;;1.30;;
20144;SDS011;10233;50.814;6.590;2023-04-24T06:05:52;2.33;;;1.17;;
20144;SDS011;10233;50.814;6.590;2023-04-24T06:06:54;1.73;;;1.33;;
20144;SDS011;10233;50.814;6.590;2023-04-24T06:07:56;1.60;;;1.23;;
20144;SDS011;10233;50.814;6.590;2023-04-24T06:09:00;1.50;;;1.10;;
20144;SDS011;10233;50.814;6.590;2023-04-24T06:10:03;1.70;;;1.15;;
20144;SDS011;10233;50.814;6.590;2023-04-24T06:11:10;2.92;;;1.40;;
20144;SDS011;10233;50.814;6.590;2023-04-24T06:12:11;2.28;;;1.33;;
20144;SDS011;10233;50.814;6.590;2023-04-24T06:13:24;1.63;;;1.37;;
20144;SDS011;10233;50.814;6.590;2023-04-24T06:14:48;1.88;;;1.40;;
20144;SDS011;10233;50.814;6.590;2023-04-24T06:15:56;2.92;;;1.40;;
20144;SDS011;10233;50.814;6.590;2023-04-24T06:17:05;1.52;;;1.20;;